createdAt,value
2018-05-09T00:01:24.528Z,13.7
2018-05-09T00:04:22.401Z,13.7
2018-05-09T00:05:21.714Z,13.7
2018-05-09T00:10:18.085Z,13.6
2018-05-09T00:11:17.409Z,13.6
2018-05-09T00:13:15.618Z,13.6
2018-05-09T00:14:14.836Z,13.6
2018-05-09T00:15:14.166Z,13.6
2018-05-09T00:20:10.310Z,13.5
2018-05-09T00:21:10.039Z,13.5
2018-05-09T00:23:08.348Z,13.5
2018-05-09T00:27:05.117Z,13.4
2018-05-09T00:30:03.211Z,13.3
2018-05-09T00:31:02.312Z,13.3
2018-05-09T00:32:01.419Z,13.3
2018-05-09T00:33:00.758Z,13.2
2018-05-09T00:35:58.749Z,13.2
2018-05-09T00:40:55.008Z,13.2
2018-05-09T00:41:54.217Z,13.2
2018-05-09T00:42:53.748Z,13.2
2018-05-09T00:47:49.737Z,13.2
2018-05-09T00:48:19.873Z,13.2
2018-05-09T00:48:50.498Z,13.2
2018-05-09T00:49:21.121Z,13.2
2018-05-09T00:52:45.793Z,13.2
2018-05-09T00:54:44.607Z,13.1
2018-05-09T00:55:43.923Z,13.1
2018-05-09T00:56:42.859Z,13.1
2018-05-09T00:59:40.338Z,13.1
2018-05-09T01:00:40.309Z,13.1
2018-05-09T01:03:38.011Z,13.1
2018-05-09T01:05:36.211Z,13
2018-05-09T01:06:35.480Z,13
2018-05-09T01:08:33.675Z,13
2018-05-09T01:09:33.493Z,13
2018-05-09T01:10:32.307Z,13
2018-05-09T01:11:31.419Z,13
2018-05-09T01:12:30.736Z,13
2018-05-09T01:13:29.846Z,13
2018-05-09T01:14:28.955Z,13
2018-05-09T01:15:28.670Z,13
2018-05-09T01:16:27.987Z,13
2018-05-09T01:18:26.922Z,13
2018-05-09T01:18:57.457Z,13
2018-05-09T01:21:24.353Z,13.1
2018-05-09T01:22:23.574Z,13.1
2018-05-09T01:25:21.226Z,13.1
2018-05-09T01:27:19.434Z,13.1
2018-05-09T01:28:18.767Z,13.1
2018-05-09T01:29:17.872Z,13.1
2018-05-09T01:29:48.506Z,13.1
2018-05-09T01:30:19.144Z,13.1
2018-05-09T01:30:49.168Z,13.1
2018-05-09T01:32:15.672Z,13.1
2018-05-09T01:35:13.549Z,13
2018-05-09T01:36:12.867Z,13
2018-05-09T01:37:12.103Z,13
2018-05-09T01:38:11.308Z,13
2018-05-09T01:39:10.518Z,13
2018-05-09T01:40:09.951Z,13
2018-05-09T01:40:40.082Z,13
2018-05-09T01:42:08.229Z,12.9
2018-05-09T01:44:06.826Z,12.9
2018-05-09T01:45:05.923Z,12.9
2018-05-09T01:47:04.526Z,12.8
2018-05-09T01:48:03.963Z,12.8
2018-05-09T01:49:02.667Z,12.8
2018-05-09T01:50:01.676Z,12.8
2018-05-09T01:51:01.288Z,12.8
2018-05-09T01:52:59.782Z,12.8
2018-05-09T01:54:58.913Z,12.8
2018-05-09T01:57:56.114Z,12.8
2018-05-09T01:58:55.426Z,12.8
2018-05-09T01:59:54.422Z,12.8
2018-05-09T02:01:53.231Z,12.7
2018-05-09T02:02:52.050Z,12.7
2018-05-09T02:03:51.261Z,12.7
2018-05-09T02:04:50.472Z,12.7
2018-05-09T02:08:47.454Z,12.7
2018-05-09T02:09:46.775Z,12.6
2018-05-09T02:10:46.098Z,12.6
2018-05-09T02:11:45.429Z,12.6
2018-05-09T02:12:44.745Z,12.6
2018-05-09T02:13:43.564Z,12.6
2018-05-09T02:15:41.950Z,12.6
2018-05-09T02:16:41.436Z,12.6
2018-05-09T02:18:40.163Z,12.5
2018-05-09T02:21:37.866Z,12.6
2018-05-09T02:22:36.569Z,12.5
2018-05-09T02:23:36.392Z,12.5
2018-05-09T02:25:34.597Z,12.6
2018-05-09T02:26:34.025Z,12.6
2018-05-09T02:28:32.120Z,12.6
2018-05-09T02:30:30.726Z,12.6
2018-05-09T02:31:30.049Z,12.6
2018-05-09T02:32:29.390Z,12.6
2018-05-09T02:34:27.711Z,12.5
2018-05-09T02:35:26.909Z,12.6
2018-05-09T02:36:26.146Z,12.6
2018-05-09T02:37:25.467Z,12.6
2018-05-09T02:38:24.894Z,12.5
2018-05-09T02:39:23.721Z,12.5
2018-05-09T02:40:23.156Z,12.5
2018-05-09T02:41:22.584Z,12.5
2018-05-09T02:42:21.307Z,12.5
2018-05-09T02:43:20.733Z,12.5
2018-05-09T02:45:19.343Z,12.5
2018-05-09T02:46:18.457Z,12.5
2018-05-09T02:47:17.675Z,12.5
2018-05-09T02:49:16.306Z,12.5
2018-05-09T02:50:15.519Z,12.5
2018-05-09T02:51:14.639Z,12.5
2018-05-09T02:53:13.463Z,12.5
2018-05-09T02:54:12.287Z,12.4
2018-05-09T02:56:11.022Z,12.4
2018-05-09T02:57:09.841Z,12.4
2018-05-09T02:58:09.278Z,12.4
2018-05-09T02:59:08.509Z,12.4
2018-05-09T03:00:07.731Z,12.4
2018-05-09T03:01:06.951Z,12.4
2018-05-09T03:02:06.162Z,12.3
2018-05-09T03:04:04.903Z,12.3
2018-05-09T03:07:02.503Z,12.3
2018-05-09T03:11:58.168Z,12.3
2018-05-09T03:13:56.882Z,12.3
2018-05-09T03:14:56.318Z,12.4
2018-05-09T03:17:53.686Z,12.4
2018-05-09T03:18:52.892Z,12.4
2018-05-09T03:22:49.973Z,12.4
2018-05-09T03:24:48.680Z,12.4
2018-05-09T03:25:47.501Z,12.4
2018-05-09T03:26:46.810Z,12.4
2018-05-09T03:27:46.014Z,12.3
2018-05-09T03:28:45.332Z,12.3
2018-05-09T03:29:45.275Z,12.3
2018-05-09T03:30:44.201Z,12.3
2018-05-09T03:31:43.046Z,12.3
2018-05-09T03:32:42.260Z,12.3
2018-05-09T03:33:41.571Z,12.3
2018-05-09T03:34:40.790Z,12.3
2018-05-09T03:36:39.269Z,12.2
2018-05-09T03:37:38.698Z,12.2
2018-05-09T03:38:37.406Z,12.2
2018-05-09T03:39:37.038Z,12.2
2018-05-09T03:41:34.916Z,12.2
2018-05-09T03:43:33.623Z,12.2
2018-05-09T03:44:32.954Z,12.2
2018-05-09T03:47:30.438Z,12.2
2018-05-09T03:49:29.041Z,12.2
2018-05-09T03:50:28.365Z,12.2
2018-05-09T03:52:27.062Z,12.1
2018-05-09T03:53:26.322Z,12.1
2018-05-09T03:54:25.136Z,12.1
2018-05-09T03:55:24.264Z,12.1
2018-05-09T03:56:23.583Z,12.1
2018-05-09T03:57:22.901Z,12.1
2018-05-09T03:58:22.219Z,12.1
2018-05-09T04:00:20.915Z,12.1
2018-05-09T04:01:19.728Z,12.1
2018-05-09T04:02:18.964Z,12
2018-05-09T04:03:18.274Z,12.1
2018-05-09T04:05:16.610Z,12.1
2018-05-09T04:06:15.617Z,12
2018-05-09T04:07:15.449Z,12
2018-05-09T04:08:14.263Z,12
2018-05-09T04:09:13.548Z,12
2018-05-09T04:10:13.040Z,12
2018-05-09T04:12:11.525Z,12
2018-05-09T04:15:09.121Z,12
2018-05-09T04:17:07.319Z,12
2018-05-09T04:18:06.970Z,12
2018-05-09T04:19:06.334Z,12
2018-05-09T04:21:04.649Z,12
2018-05-09T04:22:03.474Z,12
2018-05-09T04:23:02.473Z,12
2018-05-09T04:24:02.187Z,12
2018-05-09T04:26:00.480Z,12
2018-05-09T04:26:59.704Z,12
2018-05-09T04:27:59.134Z,12
2018-05-09T04:28:58.059Z,12
2018-05-09T04:31:55.652Z,12
2018-05-09T04:33:54.354Z,12.1
2018-05-09T04:34:53.571Z,12.1
2018-05-09T04:35:52.679Z,12.1
2018-05-09T04:39:49.540Z,12.2
2018-05-09T04:40:48.966Z,12.2
2018-05-09T04:41:48.284Z,12.2
2018-05-09T04:52:39.462Z,12.3
2018-05-09T04:58:34.999Z,12.4
2018-05-09T04:59:05.520Z,12.4
2018-05-09T05:01:32.802Z,12.5
2018-05-09T05:07:28.246Z,12.6
2018-05-09T05:10:25.829Z,12.7
2018-05-09T05:17:20.103Z,12.8
2018-05-09T05:24:14.873Z,13
2018-05-09T05:25:13.982Z,13
2018-05-09T05:29:11.059Z,13.1
2018-05-09T05:31:09.154Z,13.2
2018-05-09T05:32:08.376Z,13.2
2018-05-09T05:34:07.126Z,13.3
2018-05-09T05:36:05.443Z,13.4
2018-05-09T05:37:04.757Z,13.4
2018-05-09T05:39:03.362Z,13.5
2018-05-09T05:39:33.770Z,13.5
2018-05-09T05:41:01.771Z,13.5
2018-05-09T05:42:01.277Z,13.5
2018-05-09T05:43:00.089Z,13.6
2018-05-09T05:44:59.741Z,13.6
2018-05-09T05:45:57.734Z,13.7
2018-05-09T05:46:57.176Z,13.7
2018-05-09T05:47:56.490Z,13.7
2018-05-09T05:48:55.693Z,13.8
2018-05-09T05:49:26.111Z,13.8
2018-05-09T05:50:54.128Z,13.8
2018-05-09T05:52:52.619Z,13.9
2018-05-09T05:53:52.041Z,13.9
2018-05-09T05:54:50.849Z,14
2018-05-09T05:55:50.169Z,14
2018-05-09T05:56:49.606Z,14
2018-05-09T05:57:49.114Z,14
2018-05-09T05:59:46.989Z,14.1
2018-05-09T06:00:46.709Z,14.1
2018-05-09T06:02:44.844Z,14.2
2018-05-09T06:05:42.936Z,14.2
2018-05-09T06:06:41.658Z,14.3
2018-05-09T06:08:40.368Z,14.4
2018-05-09T06:09:39.693Z,14.4
2018-05-09T06:12:37.287Z,14.5
2018-05-09T06:13:36.718Z,14.5
2018-05-09T06:14:36.033Z,14.6
2018-05-09T06:15:35.466Z,14.6
2018-05-09T06:16:34.574Z,14.7
2018-05-09T06:17:33.898Z,14.7
2018-05-09T06:18:32.715Z,14.7
2018-05-09T06:19:32.142Z,14.7
2018-05-09T06:20:31.393Z,14.8
2018-05-09T06:21:30.597Z,14.8
2018-05-09T06:22:29.920Z,14.8
2018-05-09T06:23:29.130Z,14.9
2018-05-09T06:24:28.449Z,14.9
2018-05-09T06:25:27.895Z,14.9
2018-05-09T06:26:27.338Z,15
2018-05-09T06:27:26.056Z,15
2018-05-09T06:28:25.494Z,15
2018-05-09T06:31:22.996Z,15.1
2018-05-09T06:33:21.816Z,15.2
2018-05-09T06:35:20.646Z,15.3
2018-05-09T06:36:19.564Z,15.3
2018-05-09T06:37:18.982Z,15.3
2018-05-09T06:38:18.331Z,15.3
2018-05-09T06:39:17.140Z,15.4
2018-05-09T06:40:16.455Z,15.4
2018-05-09T06:41:15.577Z,15.5
2018-05-09T06:42:14.784Z,15.5
2018-05-09T06:43:14.499Z,15.5
2018-05-09T06:44:13.704Z,15.6
2018-05-09T06:45:13.020Z,15.7
2018-05-09T06:46:12.237Z,15.7
2018-05-09T06:47:11.693Z,15.7
2018-05-09T06:49:09.781Z,15.8
2018-05-09T06:50:08.883Z,15.8
2018-05-09T06:51:08.808Z,15.8
2018-05-09T06:55:05.800Z,16
2018-05-09T06:57:04.202Z,16.2
2018-05-09T06:58:03.198Z,16.2
2018-05-09T06:59:02.845Z,16.2
2018-05-09T07:02:59.726Z,16.4
2018-05-09T07:04:58.553Z,16.5
2018-05-09T07:05:57.870Z,16.5
2018-05-09T07:06:56.794Z,16.6
2018-05-09T07:08:55.501Z,16.7
2018-05-09T07:09:54.914Z,16.7
2018-05-09T07:10:54.102Z,16.7
2018-05-09T07:11:53.577Z,16.8
2018-05-09T07:12:52.529Z,16.9
2018-05-09T07:14:51.230Z,17
2018-05-09T07:16:50.052Z,17.1
2018-05-09T07:17:48.977Z,17.1
2018-05-09T07:18:48.311Z,17.2
2018-05-09T07:19:47.640Z,17.2
2018-05-09T07:20:46.848Z,17.2
2018-05-09T07:21:46.283Z,17.2
2018-05-09T07:23:44.992Z,17.3
2018-05-09T07:26:42.396Z,17.4
2018-05-09T07:27:13.024Z,17.4
2018-05-09T07:28:41.028Z,17.5
2018-05-09T07:29:11.664Z,17.5
2018-05-09T07:30:39.671Z,17.5
2018-05-09T07:31:38.773Z,17.5
2018-05-09T07:34:37.147Z,17.7
2018-05-09T07:35:36.792Z,17.7
2018-05-09T07:37:34.919Z,17.7
2018-05-09T07:38:05.231Z,17.7
2018-05-09T07:39:33.620Z,17.7
2018-05-09T07:40:32.937Z,17.7
2018-05-09T07:42:31.546Z,17.7
2018-05-09T07:43:30.996Z,17.7
2018-05-09T07:44:30.312Z,17.8
2018-05-09T07:45:29.532Z,17.8
2018-05-09T07:46:28.759Z,17.9
2018-05-09T07:49:26.750Z,18.2
2018-05-09T07:50:25.860Z,18.3
2018-05-09T07:51:25.293Z,18.3
2018-05-09T07:52:24.617Z,18.4
2018-05-09T07:53:24.010Z,18.5
2018-05-09T07:55:22.729Z,18.6
2018-05-09T07:56:21.827Z,18.6
2018-05-09T07:58:20.425Z,18.7
2018-05-09T07:59:19.743Z,18.8
2018-05-09T08:00:19.060Z,18.8
2018-05-09T08:02:18.081Z,18.8
2018-05-09T08:03:16.778Z,18.8
2018-05-09T08:05:15.779Z,19
2018-05-09T08:06:15.329Z,19
2018-05-09T08:07:14.185Z,19.1
2018-05-09T08:08:13.906Z,19.1
2018-05-09T08:09:13.293Z,19.1
2018-05-09T08:12:11.121Z,19.2
2018-05-09T08:13:10.325Z,19.2
2018-05-09T08:14:09.524Z,19.2
2018-05-09T08:15:08.843Z,19.2
2018-05-09T08:16:08.163Z,19.3
2018-05-09T08:17:07.485Z,19.3
2018-05-09T08:18:06.803Z,19.3
2018-05-09T08:20:05.407Z,19.4
2018-05-09T08:22:04.006Z,19.5
2018-05-09T08:24:03.220Z,19.6
2018-05-09T08:28:59.584Z,19.7
2018-05-09T08:30:58.680Z,19.7
2018-05-09T08:34:55.768Z,19.6
2018-05-09T08:35:55.090Z,19.6
2018-05-09T08:36:54.425Z,19.6
2018-05-09T08:39:52.528Z,19.7
2018-05-09T08:42:50.730Z,19.7
2018-05-09T08:44:49.444Z,19.9
2018-05-09T08:45:48.546Z,20
2018-05-09T08:47:47.254Z,20.3
2018-05-09T08:50:45.348Z,20.3
2018-05-09T08:55:42.127Z,20.3
2018-05-09T08:58:40.721Z,20.4
2018-05-09T08:59:39.847Z,20.4
2018-05-09T09:02:38.067Z,20.3
2018-05-09T09:07:34.937Z,20.4
2018-05-09T09:10:32.927Z,20.4
2018-05-09T09:17:28.831Z,21.1
2018-05-09T09:19:27.469Z,21.3
2018-05-09T09:21:26.183Z,21.4
2018-05-09T09:23:24.682Z,21.4
2018-05-09T09:25:23.678Z,21.5
2018-05-09T09:28:21.883Z,21.6
2018-05-09T09:36:16.814Z,21.6
2018-05-09T09:43:12.902Z,21.5
2018-05-09T09:47:10.491Z,21.5
2018-05-09T09:55:05.915Z,21.6
2018-05-09T09:56:05.230Z,21.7
2018-05-09T10:02:01.694Z,22
2018-05-09T10:04:00.296Z,22.1
2018-05-09T10:09:57.116Z,22.3
2018-05-09T10:27:47.051Z,23.4
2018-05-09T10:28:17.792Z,23.4
2018-05-09T10:28:47.817Z,23.4
2018-05-09T10:29:18.453Z,23.4
2018-05-09T10:36:41.845Z,23.6
2018-05-09T10:42:38.397Z,23.7
2018-05-09T10:46:36.781Z,23.6
2018-05-09T10:48:35.591Z,23.6
2018-05-09T10:58:30.296Z,23.7
2018-05-09T11:16:21.205Z,24.3
2018-05-09T11:23:17.537Z,24.5
2018-05-09T11:32:13.477Z,24.8
2018-05-09T11:50:05.013Z,26.1
2018-05-09T12:06:57.542Z,26.8
2018-05-09T12:22:50.530Z,27.5
2018-05-09T12:24:50.263Z,27.8
2018-05-09T12:26:48.862Z,27.8
2018-05-09T12:59:37.401Z,28.3
2018-05-09T13:00:36.503Z,28.6
2018-05-09T13:01:36.341Z,28.8
2018-05-09T13:03:35.550Z,28.8
2018-05-09T13:04:35.260Z,28.4
2018-05-09T13:06:34.254Z,28.6
2018-05-09T13:08:34.058Z,28.8
2018-05-09T13:09:33.710Z,28.9
2018-05-09T13:11:32.923Z,28.6
2018-05-09T13:13:32.528Z,28.9
2018-05-09T13:14:31.980Z,29
2018-05-09T13:15:31.817Z,29
2018-05-09T13:19:30.305Z,29
2018-05-09T13:25:28.572Z,29.4
2018-05-09T13:26:28.277Z,29.4
2018-05-09T13:28:27.402Z,29.4
2018-05-09T13:29:27.122Z,29.5
2018-05-09T13:31:26.128Z,29.6
2018-05-09T13:38:24.408Z,29.7
2018-05-09T13:39:24.143Z,29.7
2018-05-09T13:39:54.882Z,29.7
2018-05-09T14:31:10.931Z,30
2018-05-09T14:32:11.029Z,30.1
2018-05-09T14:34:10.351Z,30.1
2018-05-09T14:35:09.675Z,29.7
2018-05-09T14:36:09.996Z,29.9
2018-05-09T14:37:09.643Z,30.1
2018-05-09T14:50:06.756Z,30
2018-05-09T15:08:02.616Z,29.2
2018-05-09T15:13:01.305Z,29.3
2018-05-09T15:14:01.170Z,29.2
2018-05-09T15:17:59.766Z,29
2018-05-09T15:20:59.360Z,28.4
2018-05-09T15:21:59.344Z,28.3
2018-05-09T15:22:59.162Z,28.3
2018-05-09T15:23:58.378Z,28.2
2018-05-09T15:25:57.985Z,28.4
2018-05-09T15:26:57.691Z,28.3
2018-05-09T15:27:28.322Z,28.3
2018-05-09T15:27:58.860Z,28.3
2018-05-09T15:28:56.860Z,28.2
2018-05-09T15:34:55.636Z,27.5
2018-05-09T15:35:55.351Z,27.3
2018-05-09T15:36:55.061Z,27.1
2018-05-09T15:37:54.783Z,27
2018-05-09T15:38:55.516Z,26.7
2018-05-09T15:39:54.532Z,26.6
2018-05-09T15:40:54.348Z,26.6
2018-05-09T15:42:53.447Z,26.4
2018-05-09T15:44:53.871Z,26
2018-05-09T15:45:23.666Z,26
2018-05-09T15:46:52.565Z,25.9
2018-05-09T15:48:51.909Z,25.8
2018-05-09T15:50:50.911Z,25.7
2018-05-09T15:51:50.644Z,25.6
2018-05-09T15:52:50.359Z,25.5
2018-05-09T15:53:50.299Z,25.5
2018-05-09T15:55:49.507Z,25.3
2018-05-09T15:57:48.823Z,25
2018-05-09T15:58:48.641Z,24.9
2018-05-09T15:59:47.959Z,24.9
2018-05-09T16:00:48.363Z,24.8
2018-05-09T16:01:47.661Z,24.7
2018-05-09T16:03:46.870Z,24.6
2018-05-09T16:05:45.986Z,24.4
2018-05-09T16:06:45.803Z,24.2
2018-05-09T16:10:44.364Z,24.1
2018-05-09T16:13:42.850Z,23.9
2018-05-09T16:15:42.068Z,23.8
2018-05-09T16:16:41.902Z,23.7
2018-05-09T16:17:41.648Z,23.7
2018-05-09T16:18:41.113Z,23.7
2018-05-09T16:19:40.581Z,23.6
2018-05-09T16:20:40.298Z,23.6
2018-05-09T16:21:40.227Z,23.5
2018-05-09T16:22:39.750Z,23.5
2018-05-09T16:23:39.222Z,23.4
2018-05-09T16:24:38.540Z,23.4
2018-05-09T16:25:38.257Z,23.3
2018-05-09T16:26:38.001Z,23.4
2018-05-09T16:27:37.323Z,23.4
2018-05-09T16:28:37.251Z,23.4
2018-05-09T16:29:36.568Z,23.3
2018-05-09T16:30:07.197Z,23.3
2018-05-09T16:30:37.719Z,23.3
2018-05-09T16:31:08.463Z,23.3
2018-05-09T16:32:35.255Z,23.4
2018-05-09T16:33:35.189Z,23.4
2018-05-09T16:38:32.954Z,23.4
2018-05-09T16:39:32.171Z,23.5
2018-05-09T16:40:31.885Z,23.5
2018-05-09T16:44:29.868Z,23.6
2018-05-09T16:45:29.694Z,23.6
2018-05-09T16:46:29.522Z,23.7
2018-05-09T16:47:28.842Z,23.7
2018-05-09T16:49:28.043Z,23.8
2018-05-09T16:51:27.042Z,23.7
2018-05-09T16:54:25.465Z,23.7
2018-05-09T16:55:25.416Z,23.7
2018-05-09T16:56:24.725Z,23.8
2018-05-09T16:57:24.589Z,23.7
2018-05-09T16:58:23.700Z,23.8
2018-05-09T16:59:23.197Z,23.8
2018-05-09T17:00:22.903Z,23.7
2018-05-09T17:01:22.119Z,23.6
2018-05-09T17:03:21.336Z,23.6
2018-05-09T17:03:51.981Z,23.6
2018-05-09T17:04:22.219Z,23.5
2018-05-09T17:05:20.543Z,23.6
2018-05-09T17:06:19.865Z,23.5
2018-05-09T17:07:20.197Z,23.5
2018-05-09T17:08:18.805Z,23.4
2018-05-09T17:09:18.632Z,23.4
2018-05-09T17:10:18.133Z,23.4
2018-05-09T17:11:17.974Z,23.4
2018-05-09T17:12:17.422Z,23.4
2018-05-09T17:14:16.215Z,23.4
2018-05-09T17:16:15.427Z,23.3
2018-05-09T17:17:14.640Z,23.3
2018-05-09T17:18:14.582Z,23.2
2018-05-09T17:19:14.351Z,23.2
2018-05-09T17:20:13.795Z,23.2
2018-05-09T17:21:13.012Z,23.2
2018-05-09T17:22:12.442Z,23.1
2018-05-09T17:23:12.051Z,23.1
2018-05-09T17:24:11.263Z,23.1
2018-05-09T17:25:11.175Z,23
2018-05-09T17:26:10.389Z,22.9
2018-05-09T17:27:10.312Z,22.9
2018-05-09T17:28:09.517Z,22.9
2018-05-09T17:30:08.510Z,22.8
2018-05-09T17:31:08.229Z,22.8
2018-05-09T17:32:08.057Z,22.8
2018-05-09T17:36:05.824Z,22.7
2018-05-09T17:37:05.147Z,22.6
2018-05-09T17:38:04.756Z,22.7
2018-05-09T17:39:03.979Z,22.7
2018-05-09T17:40:03.707Z,22.7
2018-05-09T17:40:34.346Z,22.7
2018-05-09T17:41:04.873Z,22.6
2018-05-09T17:42:02.707Z,22.6
2018-05-09T17:43:02.337Z,22.5
2018-05-09T17:44:01.937Z,22.5
2018-05-09T17:45:01.051Z,22.5
2018-05-09T17:46:00.666Z,22.4
2018-05-09T17:47:00.500Z,22.4
2018-05-09T17:48:59.323Z,22.4
2018-05-09T17:49:58.642Z,22.4
2018-05-09T17:50:58.356Z,22.4
2018-05-09T17:51:58.171Z,22.3
2018-05-09T17:52:57.276Z,22.3
2018-05-09T17:53:57.110Z,22.3
2018-05-09T17:54:56.325Z,22.2
2018-05-09T17:55:55.638Z,22.2
2018-05-09T17:56:55.566Z,22.2
2018-05-09T17:57:54.893Z,22.2
2018-05-09T17:58:54.247Z,22.2
2018-05-09T17:59:53.966Z,22.1
2018-05-09T18:00:53.154Z,22.1
2018-05-09T18:01:23.575Z,22.1
2018-05-09T18:02:52.103Z,22
2018-05-09T18:03:52.048Z,22
2018-05-09T18:04:51.385Z,22
2018-05-09T18:05:50.364Z,22
2018-05-09T18:06:50.182Z,21.9
2018-05-09T18:07:49.389Z,21.9
2018-05-09T18:08:49.214Z,21.8
2018-05-09T18:10:47.927Z,21.8
2018-05-09T18:11:18.566Z,21.8
2018-05-09T18:11:48.744Z,21.8
2018-05-09T18:12:19.163Z,21.8
2018-05-09T18:13:46.667Z,21.7
2018-05-09T18:14:46.382Z,21.7
2018-05-09T18:15:45.400Z,21.6
2018-05-09T18:16:45.130Z,21.6
2018-05-09T18:17:44.343Z,21.5
2018-05-09T18:18:44.277Z,21.5
2018-05-09T18:19:43.712Z,21.5
2018-05-09T18:20:42.819Z,21.5
2018-05-09T18:21:42.134Z,21.4
2018-05-09T18:22:41.857Z,21.4
2018-05-09T18:23:41.253Z,21.4
2018-05-09T18:24:40.583Z,21.3
2018-05-09T18:25:40.298Z,21.3
2018-05-09T18:26:40.066Z,21.2
2018-05-09T18:27:38.894Z,21.2
2018-05-09T18:28:38.617Z,21.2
2018-05-09T18:29:37.500Z,21.1
2018-05-09T18:30:37.222Z,21.1
2018-05-09T18:31:36.825Z,21.1
2018-05-09T18:32:36.319Z,21
2018-05-09T18:33:35.851Z,21
2018-05-09T18:34:35.263Z,21
2018-05-09T18:35:34.588Z,20.9
2018-05-09T18:36:34.552Z,20.9
2018-05-09T18:37:33.879Z,20.9
2018-05-09T18:38:33.219Z,20.8
2018-05-09T18:39:32.657Z,20.8
2018-05-09T18:40:32.116Z,20.8
2018-05-09T18:41:31.327Z,20.8
2018-05-09T18:42:31.155Z,20.7
2018-05-09T18:43:30.371Z,20.7
2018-05-09T18:44:01.009Z,20.7
2018-05-09T18:45:29.509Z,20.6
2018-05-09T18:46:28.861Z,20.6
2018-05-09T18:47:28.263Z,20.6
2018-05-09T18:48:27.695Z,20.5
2018-05-09T18:49:26.705Z,20.5
2018-05-09T18:50:26.646Z,20.5
2018-05-09T18:51:25.747Z,20.4
2018-05-09T18:52:25.465Z,20.4
2018-05-09T18:53:24.782Z,20.3
2018-05-09T18:53:55.412Z,20.3
2018-05-09T18:54:25.547Z,20.3
2018-05-09T18:54:56.181Z,20.3
2018-05-09T18:55:26.869Z,20.3
2018-05-09T18:55:57.396Z,20.3
2018-05-09T18:56:28.138Z,20.2
2018-05-09T18:56:58.157Z,20.2
2018-05-09T18:58:22.021Z,20.2
2018-05-09T18:59:21.336Z,20.1
2018-05-09T19:00:21.158Z,20.1
2018-05-09T19:01:20.271Z,20.1
2018-05-09T19:02:19.701Z,20.1
2018-05-09T19:03:19.025Z,20
2018-05-09T19:04:18.751Z,20
2018-05-09T19:05:17.638Z,20
2018-05-09T19:05:48.165Z,20
2018-05-09T19:06:18.687Z,19.9
2018-05-09T19:06:49.422Z,19.9
2018-05-09T19:07:19.670Z,19.9
2018-05-09T19:07:49.807Z,19.9
2018-05-09T19:09:15.917Z,19.8
2018-05-09T19:10:15.141Z,19.8
2018-05-09T19:11:14.142Z,19.8
2018-05-09T19:12:13.750Z,19.7
2018-05-09T19:14:12.859Z,19.7
2018-05-09T19:15:12.180Z,19.6
2018-05-09T19:16:11.285Z,19.6
2018-05-09T19:17:11.078Z,19.6
2018-05-09T19:18:10.287Z,19.5
2018-05-09T19:19:10.014Z,19.5
2018-05-09T19:21:08.727Z,19.5
2018-05-09T19:22:07.940Z,19.4
2018-05-09T19:23:07.818Z,19.4
2018-05-09T19:24:07.157Z,19.4
2018-05-09T19:25:06.380Z,19.4
2018-05-09T19:27:05.094Z,19.3
2018-05-09T19:29:03.987Z,19.3
2018-05-09T19:30:03.212Z,19.3
2018-05-09T19:31:02.815Z,19.3
2018-05-09T19:32:02.145Z,19.2
2018-05-09T19:33:01.465Z,19.2
2018-05-09T19:35:00.168Z,19.2
2018-05-09T19:36:00.096Z,19.1
2018-05-09T19:36:59.319Z,19.1
2018-05-09T19:37:58.525Z,19.1
2018-05-09T19:38:57.845Z,19.1
2018-05-09T19:40:56.999Z,19.1
2018-05-09T19:41:56.098Z,19
2018-05-09T19:42:55.918Z,19
2018-05-09T19:43:55.346Z,19
2018-05-09T19:46:53.439Z,18.9
2018-05-09T19:47:53.080Z,18.9
2018-05-09T19:48:51.845Z,18.9
2018-05-09T19:49:51.166Z,18.9
2018-05-09T19:50:51.001Z,18.8
2018-05-09T19:51:50.327Z,18.8
2018-05-09T19:52:49.536Z,18.8
2018-05-09T19:53:48.975Z,18.7
2018-05-09T19:54:48.360Z,18.7
2018-05-09T19:55:47.724Z,18.7
2018-05-09T19:56:47.058Z,18.6
2018-05-09T19:57:46.377Z,18.6
2018-05-09T19:59:45.077Z,18.6
2018-05-09T20:00:44.910Z,18.5
2018-05-09T20:01:44.365Z,18.5
2018-05-09T20:02:43.687Z,18.5
2018-05-09T20:03:43.120Z,18.4
2018-05-09T20:04:42.446Z,18.4
2018-05-09T20:05:41.445Z,18.4
2018-05-09T20:06:41.272Z,18.4
2018-05-09T20:07:40.606Z,18.3
2018-05-09T20:09:39.314Z,18.3
2018-05-09T20:10:38.527Z,18.3
2018-05-09T20:11:37.885Z,18.3
2018-05-09T20:12:37.202Z,18.2
2018-05-09T20:13:36.532Z,18.2
2018-05-09T20:14:36.256Z,18.2
2018-05-09T20:15:35.580Z,18.1
2018-05-09T20:16:34.808Z,18.1
2018-05-09T20:17:34.318Z,18.1
2018-05-09T20:18:33.305Z,18.1
2018-05-09T20:19:32.910Z,18.1
2018-05-09T20:20:32.017Z,18.1
2018-05-09T20:21:31.740Z,18
2018-05-09T20:22:31.055Z,18
2018-05-09T20:23:30.440Z,18
2018-05-09T20:24:29.882Z,18
2018-05-09T20:25:29.091Z,18
2018-05-09T20:26:28.314Z,17.9
2018-05-09T20:27:28.253Z,17.9
2018-05-09T20:28:27.572Z,17.9
2018-05-09T20:29:26.804Z,17.9
2018-05-09T20:30:26.134Z,17.9
2018-05-09T20:31:25.597Z,17.8
2018-05-09T20:32:24.711Z,17.8
2018-05-09T20:33:24.041Z,17.8
2018-05-09T20:34:23.544Z,17.8
2018-05-09T20:36:22.271Z,17.8
2018-05-09T20:37:21.593Z,17.8
2018-05-09T20:38:21.025Z,17.8
2018-05-09T20:39:20.519Z,17.8
2018-05-09T20:40:19.954Z,17.8
2018-05-09T20:41:19.400Z,17.7
2018-05-09T20:42:18.604Z,17.7
2018-05-09T20:43:17.925Z,17.7
2018-05-09T20:45:16.582Z,17.7
2018-05-09T20:45:46.994Z,17.7
2018-05-09T20:47:15.536Z,17.6
2018-05-09T20:48:14.973Z,17.6
2018-05-09T20:49:14.294Z,17.6
2018-05-09T20:50:13.714Z,17.6
2018-05-09T20:51:12.427Z,17.6
2018-05-09T20:53:12.227Z,17.5
2018-05-09T20:54:10.975Z,17.5
2018-05-09T20:55:10.401Z,17.5
2018-05-09T20:56:09.613Z,17.5
2018-05-09T20:57:08.827Z,17.5
2018-05-09T20:58:08.313Z,17.5
2018-05-09T20:59:07.638Z,17.5
2018-05-09T21:00:06.848Z,17.4
2018-05-09T21:01:06.456Z,17.4
2018-05-09T21:02:05.667Z,17.4
2018-05-09T21:03:05.095Z,17.4
2018-05-09T21:04:04.202Z,17.4
2018-05-09T21:05:03.702Z,17.4
2018-05-09T21:06:02.909Z,17.3
2018-05-09T21:07:02.128Z,17.3
2018-05-09T21:08:01.849Z,17.3
2018-05-09T21:09:00.959Z,17.3
2018-05-09T21:10:00.099Z,17.3
2018-05-09T21:10:59.816Z,17.2
2018-05-09T21:11:59.128Z,17.2
2018-05-09T21:12:58.339Z,17.2
2018-05-09T21:13:57.557Z,17.2
2018-05-09T21:14:57.376Z,17.2
2018-05-09T21:15:56.809Z,17.2
2018-05-09T21:16:56.127Z,17.2
2018-05-09T21:17:55.441Z,17.1
2018-05-09T21:18:54.868Z,17.1
2018-05-09T21:19:54.188Z,17.1
2018-05-09T21:20:53.290Z,17.1
2018-05-09T21:21:52.509Z,17.1
2018-05-09T21:22:51.934Z,17
2018-05-09T21:23:51.401Z,17
2018-05-09T21:24:50.840Z,17
2018-05-09T21:25:50.247Z,17
2018-05-09T21:26:49.468Z,17
2018-05-09T21:27:49.348Z,17
2018-05-09T21:28:47.957Z,17
2018-05-09T21:29:47.381Z,17
2018-05-09T21:30:46.702Z,16.9
2018-05-09T21:31:45.806Z,17
2018-05-09T21:32:45.730Z,16.9
2018-05-09T21:33:45.151Z,16.9
2018-05-09T21:34:43.961Z,16.9
2018-05-09T21:35:43.392Z,16.9
2018-05-09T21:36:42.840Z,16.9
2018-05-09T21:37:41.721Z,16.9
2018-05-09T21:38:41.547Z,16.9
2018-05-09T21:39:40.968Z,16.9
2018-05-09T21:40:40.397Z,16.9
2018-05-09T21:41:39.730Z,16.9
2018-05-09T21:42:39.046Z,16.9
2018-05-09T21:43:38.260Z,16.9
2018-05-09T21:44:37.475Z,16.9
2018-05-09T21:45:36.572Z,16.9
2018-05-09T21:46:36.352Z,16.9
2018-05-09T21:47:35.535Z,16.9
2018-05-09T21:48:35.277Z,16.9
2018-05-09T21:49:34.089Z,16.9
2018-05-09T21:50:33.309Z,16.9
2018-05-09T21:51:32.780Z,16.9
2018-05-09T21:52:32.601Z,16.9
2018-05-09T21:54:30.696Z,16.9
2018-05-09T21:55:30.632Z,16.9
2018-05-09T21:56:01.139Z,16.9
2018-05-09T21:56:31.245Z,16.9
2018-05-09T21:57:29.053Z,16.9
2018-05-09T21:58:28.150Z,16.8
2018-05-09T22:00:26.649Z,16.8
2018-05-09T22:01:26.256Z,16.8
2018-05-09T22:02:25.534Z,16.8
2018-05-09T22:03:24.747Z,16.7
2018-05-09T22:04:24.457Z,16.7
2018-05-09T22:05:23.779Z,16.7
2018-05-09T22:06:23.212Z,16.7
2018-05-09T22:07:22.312Z,16.7
2018-05-09T22:08:21.381Z,16.7
2018-05-09T22:09:21.206Z,16.7
2018-05-09T22:10:20.418Z,16.7
2018-05-09T22:11:19.858Z,16.7
2018-05-09T22:12:19.301Z,16.7
2018-05-09T22:13:18.159Z,16.7
2018-05-09T22:14:17.368Z,16.6
2018-05-09T22:15:17.090Z,16.6
2018-05-09T22:16:16.403Z,16.6
2018-05-09T22:17:15.731Z,16.6
2018-05-09T22:18:15.157Z,16.6
2018-05-09T22:19:14.472Z,16.6
2018-05-09T22:20:13.677Z,16.6
2018-05-09T22:21:12.992Z,16.5
2018-05-09T22:22:12.310Z,16.5
2018-05-09T22:23:11.422Z,16.5
2018-05-09T22:24:10.641Z,16.5
2018-05-09T22:25:10.585Z,16.5
2018-05-09T22:26:09.410Z,16.5
2018-05-09T22:27:08.831Z,16.4
2018-05-09T22:28:08.455Z,16.4
2018-05-09T22:29:08.092Z,16.4
2018-05-09T22:30:06.925Z,16.4
2018-05-09T22:31:06.354Z,16.4
2018-05-09T22:32:05.670Z,16.4
2018-05-09T22:33:04.994Z,16.4
2018-05-09T22:34:04.211Z,16.3
2018-05-09T22:35:03.421Z,16.3
2018-05-09T22:36:02.417Z,16.3
2018-05-09T22:37:02.248Z,16.3
2018-05-09T22:38:01.565Z,16.3